Time;durP1;ratioP1;P1;durP2;ratioP2;P2;SDS_P1;SDS_P2;PMS_P1;PMS_P2;Temp;Humidity;BMP_temperature;BMP_pressure;BME280_temperature;BME280_humidity;BME280_pressure;Samples;Min_cycle;Max_cycle;Signal;HPM_P1;HPM_P2
2023/07/14 00:00:08;;;;;;;2.33;1.20;;;;;;;;;;5093956;28;20024;-59
2023/07/14 00:02:35;;;;;;;2.35;1.30;;;;;;;;;;5093466;28;20576;-60
2023/07/14 00:05:01;;;;;;;2.28;1.10;;;;;;;;;;5093284;28;20024;-60
2023/07/14 00:07:27;;;;;;;2.70;1.92;;;;;;;;;;5093703;28;20025;-60
2023/07/14 00:09:53;;;;;;;2.40;1.13;;;;;;;;;;5093738;28;20051;-59
2023/07/14 00:12:19;;;;;;;2.72;1.30;;;;;;;;;;5092660;28;20026;-60
2023/07/14 00:14:45;;;;;;;2.03;1.20;;;;;;;;;;5093560;28;20070;-59
2023/07/14 00:17:12;;;;;;;2.25;1.27;;;;;;;;;;5093135;28;20032;-59
2023/07/14 00:19:39;;;;;;;5.68;1.15;;;;;;;;;;5093590;28;20634;-59
2023/07/14 00:22:14;;;;;;;2.25;1.27;;;;;;;;;;5092946;28;20043;-59
2023/07/14 00:24:40;;;;;;;3.08;1.60;;;;;;;;;;5093592;28;20105;-59
2023/07/14 00:27:14;;;;;;;2.00;1.05;;;;;;;;;;5092961;28;20050;-59
2023/07/14 00:29:40;;;;;;;4.22;1.63;;;;;;;;;;5093253;28;20024;-59
2023/07/14 00:32:11;;;;;;;2.47;1.50;;;;;;;;;;5092644;28;20031;-59
2023/07/14 00:34:37;;;;;;;4.93;1.77;;;;;;;;;;5093427;28;20056;-59
2023/07/14 00:37:03;;;;;;;3.20;1.40;;;;;;;;;;5093048;28;20472;-59
2023/07/14 00:39:28;;;;;;;2.30;1.52;;;;;;;;;;5093150;28;20413;-60
2023/07/14 00:41:55;;;;;;;3.15;1.30;;;;;;;;;;5092156;28;20028;-59
2023/07/14 00:44:20;;;;;;;2.17;1.30;;;;;;;;;;5093150;28;20085;-59
2023/07/14 00:46:48;;;;;;;2.53;1.40;;;;;;;;;;5093031;28;20020;-59
2023/07/14 00:49:28;;;;;;;2.20;1.20;;;;;;;;;;5093122;28;20078;-59
2023/07/14 00:51:57;;;;;;;1.38;0.75;;;;;;;;;;5092232;28;20047;-59
2023/07/14 00:54:25;;;;;;;2.72;1.40;;;;;;;;;;5092784;28;20024;-59
2023/07/14 00:56:52;;;;;;;3.50;1.80;;;;;;;;;;5092527;28;20028;-59
2023/07/14 00:59:18;;;;;;;3.13;1.70;;;;;;;;;;5092786;28;20043;-59
2023/07/14 01:02:03;;;;;;;2.03;1.08;;;;;;;;;;5091980;28;20020;-59
2023/07/14 01:04:29;;;;;;;2.97;1.50;;;;;;;;;;5092672;28;20032;-59
2023/07/14 01:06:55;;;;;;;1.63;0.75;;;;;;;;;;5092433;28;20358;-59
2023/07/14 01:09:21;;;;;;;1.92;1.23;;;;;;;;;;5092624;28;20103;-59
2023/07/14 01:11:49;;;;;;;2.30;1.33;;;;;;;;;;5091664;28;20016;-59
2023/07/14 01:14:27;;;;;;;1.77;1.05;;;;;;;;;;5092653;28;20023;-59
2023/07/14 01:16:53;;;;;;;3.00;1.55;;;;;;;;;;5092355;28;20020;-59
2023/07/14 01:19:33;;;;;;;1.95;1.30;;;;;;;;;;5092868;28;20369;-59
2023/07/14 01:22:04;;;;;;;3.22;1.50;;;;;;;;;;5091655;28;20373;-59
2023/07/14 01:24:37;;;;;;;2.15;1.08;;;;;;;;;;5092532;28;20024;-59
2023/07/14 01:27:05;;;;;;;2.65;1.58;;;;;;;;;;5092066;28;20489;-59
2023/07/14 01:29:32;;;;;;;2.92;1.60;;;;;;;;;;5092393;28;20375;-59
2023/07/14 01:31:59;;;;;;;2.28;1.38;;;;;;;;;;5089852;28;20055;-59
2023/07/14 01:34:25;;;;;;;2.60;1.38;;;;;;;;;;5092392;28;20471;-59
2023/07/14 01:36:56;;;;;;;6.25;1.95;;;;;;;;;;5092151;28;20123;-59
2023/07/14 01:39:22;;;;;;;2.00;1.20;;;;;;;;;;5092190;28;20036;-59
2023/07/14 01:41:48;;;;;;;1.98;1.25;;;;;;;;;;5091218;28;20542;-59
2023/07/14 01:44:19;;;;;;;1.70;1.00;;;;;;;;;;5091940;28;20020;-59
2023/07/14 01:46:45;;;;;;;;;;;;;;;;;;5091981;28;20016;-59
2023/07/14 01:49:21;;;;;;;2.10;1.17;;;;;;;;;;5092169;28;19904;-59
2023/07/14 01:51:48;;;;;;;4.30;1.80;;;;;;;;;;5091216;28;20020;-59
2023/07/14 01:54:35;;;;;;;1.70;0.90;;;;;;;;;;5092121;28;20100;-59
2023/07/14 01:57:04;;;;;;;2.65;1.40;;;;;;;;;;5091415;28;20370;-59
2023/07/14 01:59:32;;;;;;;4.22;1.40;;;;;;;;;;5091941;28;20115;-59
2023/07/14 02:01:59;;;;;;;2.60;1.27;;;;;;;;;;5091265;28;20028;-59
2023/07/14 02:04:27;;;;;;;2.47;1.55;;;;;;;;;;5091990;28;20024;-59
2023/07/14 02:06:56;;;;;;;3.05;1.33;;;;;;;;;;5091663;28;20051;-59
2023/07/14 02:09:23;;;;;;;1.90;1.05;;;;;;;;;;5091854;28;20020;-59
2023/07/14 02:11:51;;;;;;;3.10;1.48;;;;;;;;;;5090766;28;20074;-59
2023/07/14 02:14:19;;;;;;;2.03;1.10;;;;;;;;;;5091850;28;20021;-59
2023/07/14 02:16:49;;;;;;;2.90;1.52;;;;;;;;;;5091451;28;20028;-59
2023/07/14 02:19:15;;;;;;;;;;;;;;;;;;5092268;28;20382;-59
2023/07/14 02:21:42;;;;;;;1.77;1.10;;;;;;;;;;5090891;28;19908;-59
2023/07/14 02:24:10;;;;;;;2.10;1.17;;;;;;;;;;5091561;28;20016;-59
2023/07/14 02:26:37;;;;;;;2.58;1.60;;;;;;;;;;5091583;28;20024;-59
2023/07/14 02:29:10;;;;;;;4.07;1.67;;;;;;;;;;5094069;28;20031;-59
2023/07/14 02:31:59;;;;;;;3.08;1.33;;;;;;;;;;5094951;28;20020;-59
2023/07/14 02:34:29;;;;;;;2.67;1.70;;;;;;;;;;5095426;28;20032;-59
2023/07/14 02:36:56;;;;;;;2.53;1.85;;;;;;;;;;5095526;28;20031;-59
2023/07/14 02:39:23;;;;;;;2.75;1.27;;;;;;;;;;5095439;28;20474;-59
2023/07/14 02:41:50;;;;;;;2.95;1.52;;;;;;;;;;5094844;28;20063;-59
2023/07/14 02:44:17;;;;;;;3.03;1.65;;;;;;;;;;5095483;28;20028;-59
2023/07/14 02:46:55;;;;;;;3.72;1.15;;;;;;;;;;5095151;28;20099;-59
2023/07/14 02:49:21;;;;;;;2.50;1.77;;;;;;;;;;5095316;28;20028;-59
2023/07/14 02:51:47;;;;;;;3.22;1.88;;;;;;;;;;5094350;28;20031;-59
2023/07/14 02:54:13;;;;;;;3.67;1.70;;;;;;;;;;5095462;28;20024;-59
2023/07/14 02:56:39;;;;;;;4.25;1.75;;;;;;;;;;5094866;28;20020;-59
2023/07/14 02:59:06;;;;;;;2.90;1.73;;;;;;;;;;5095092;28;20125;-59
2023/07/14 03:01:32;;;;;;;3.58;1.75;;;;;;;;;;5094479;28;20027;-59
2023/07/14 03:04:02;;;;;;;3.38;1.42;;;;;;;;;;5094988;28;20028;-59
2023/07/14 03:06:28;;;;;;;2.70;1.65;;;;;;;;;;5094865;28;20223;-59
2023/07/14 03:08:54;;;;;;;2.50;1.60;;;;;;;;;;5095050;28;20028;-59
2023/07/14 03:11:20;;;;;;;2.65;1.58;;;;;;;;;;5094047;28;20120;-59
2023/07/14 03:13:46;;;;;;;3.30;1.60;;;;;;;;;;5095078;28;20039;-59
2023/07/14 03:16:12;;;;;;;5.03;1.50;;;;;;;;;;5094238;28;20016;-59
2023/07/14 03:18:38;;;;;;;3.13;1.83;;;;;;;;;;5094802;28;20458;-59
2023/07/14 03:21:04;;;;;;;3.55;1.98;;;;;;;;;;5093958;28;20024;-59
2023/07/14 03:23:31;;;;;;;2.80;2.20;;;;;;;;;;5094707;28;20509;-59
2023/07/14 03:26:01;;;;;;;2.67;1.83;;;;;;;;;;5094383;28;20020;-59
2023/07/14 03:28:28;;;;;;;2.45;1.73;;;;;;;;;;5094636;28;20024;-59
2023/07/14 03:30:54;;;;;;;2.08;1.30;;;;;;;;;;5093254;28;20012;-59
2023/07/14 03:33:20;;;;;;;2.47;1.45;;;;;;;;;;5094414;28;20020;-59
2023/07/14 03:35:46;;;;;;;4.13;1.90;;;;;;;;;;5094655;28;20013;-59
2023/07/14 03:38:12;;;;;;;2.80;1.40;;;;;;;;;;5094342;28;20028;-59
2023/07/14 03:40:38;;;;;;;3.17;1.63;;;;;;;;;;5092004;28;20486;-59
2023/07/14 03:43:04;;;;;;;3.97;1.48;;;;;;;;;;5094388;28;20425;-59
2023/07/14 03:45:31;;;;;;;3.08;1.50;;;;;;;;;;5089733;28;20040;-59
2023/07/14 03:47:57;;;;;;;2.47;1.55;;;;;;;;;;5090194;28;20028;-59
2023/07/14 03:50:23;;;;;;;3.97;1.38;;;;;;;;;;5087729;28;20027;-59
2023/07/14 03:52:49;;;;;;;2.80;1.65;;;;;;;;;;5094112;28;20028;-59
2023/07/14 03:55:15;;;;;;;2.67;1.15;;;;;;;;;;5093865;28;20047;-59
2023/07/14 03:57:41;;;;;;;2.00;1.20;;;;;;;;;;5089459;28;20097;-59
2023/07/14 04:00:14;;;;;;;3.58;1.80;;;;;;;;;;5093649;28;20455;-59
2023/07/14 04:02:40;;;;;;;2.60;1.60;;;;;;;;;;5093560;28;20023;-59
2023/07/14 04:05:09;;;;;;;2.70;1.45;;;;;;;;;;5094041;28;20408;-59
2023/07/14 04:07:36;;;;;;;3.17;1.58;;;;;;;;;;5093626;28;20111;-59
2023/07/14 04:10:03;;;;;;;2.47;1.38;;;;;;;;;;5092153;28;20025;-59
2023/07/14 04:12:29;;;;;;;2.78;1.33;;;;;;;;;;5092977;28;20036;-59
2023/07/14 04:14:55;;;;;;;2.88;1.75;;;;;;;;;;5093868;28;20475;-59
2023/07/14 04:17:22;;;;;;;2.38;1.77;;;;;;;;;;5093139;28;20055;-59
2023/07/14 04:19:48;;;;;;;7.30;1.63;;;;;;;;;;5093551;28;20028;-59
2023/07/14 04:22:14;;;;;;;1.90;1.27;;;;;;;;;;5092694;28;20386;-59
2023/07/14 04:24:40;;;;;;;2.75;1.70;;;;;;;;;;5092427;28;20024;-59
2023/07/14 04:27:06;;;;;;;3.72;2.00;;;;;;;;;;5093198;28;20031;-59
2023/07/14 04:29:32;;;;;;;3.05;1.70;;;;;;;;;;5088129;28;20418;-59
2023/07/14 04:31:58;;;;;;;3.10;1.48;;;;;;;;;;5085937;28;20362;-59
2023/07/14 04:34:24;;;;;;;3.15;1.58;;;;;;;;;;5078557;28;20028;-59
2023/07/14 04:36:50;;;;;;;2.58;1.33;;;;;;;;;;5091094;28;20020;-59
2023/07/14 04:39:16;;;;;;;4.15;1.58;;;;;;;;;;5077442;28;20032;-59
2023/07/14 04:41:44;;;;;;;2.63;1.38;;;;;;;;;;5092262;28;20042;-59
2023/07/14 04:44:13;;;;;;;2.35;1.48;;;;;;;;;;5092372;28;20501;-59
2023/07/14 04:46:39;;;;;;;2.08;1.42;;;;;;;;;;5088535;28;20028;-59
2023/07/14 04:49:05;;;;;;;3.03;2.03;;;;;;;;;;5093146;28;20034;-59
2023/07/14 04:51:32;;;;;;;2.55;1.70;;;;;;;;;;5089344;28;20020;-59
2023/07/14 04:53:58;;;;;;;4.35;1.77;;;;;;;;;;5092131;28;20602;-59
2023/07/14 04:56:24;;;;;;;7.10;1.88;;;;;;;;;;5091115;28;20037;-59
2023/07/14 04:58:50;;;;;;;3.63;1.25;;;;;;;;;;5092949;28;20064;-59
2023/07/14 05:01:16;;;;;;;4.53;1.65;;;;;;;;;;5088777;28;20059;-60
2023/07/14 05:03:43;;;;;;;4.05;2.10;;;;;;;;;;5092385;28;20012;-60
2023/07/14 05:06:09;;;;;;;3.47;2.05;;;;;;;;;;5088681;28;20031;-59
2023/07/14 05:08:35;;;;;;;3.00;2.25;;;;;;;;;;5084908;28;20036;-59
2023/07/14 05:11:01;;;;;;;3.30;1.67;;;;;;;;;;5087914;28;20465;-59
2023/07/14 05:13:27;;;;;;;2.13;1.42;;;;;;;;;;5092716;28;20024;-59
2023/07/14 05:15:57;;;;;;;2.10;1.42;;;;;;;;;;5087716;28;20023;-60
2023/07/14 05:18:24;;;;;;;2.97;1.77;;;;;;;;;;5080870;28;20050;-59
2023/07/14 05:20:50;;;;;;;2.88;1.67;;;;;;;;;;5090919;28;20021;-60
2023/07/14 05:23:16;;;;;;;3.45;1.92;;;;;;;;;;5092536;28;20020;-59
2023/07/14 05:25:42;;;;;;;2.72;2.08;;;;;;;;;;5089059;28;20020;-59
2023/07/14 05:28:09;;;;;;;2.53;1.83;;;;;;;;;;5088055;28;20089;-59
2023/07/14 05:30:35;;;;;;;3.42;2.15;;;;;;;;;;5091270;28;20432;-59
2023/07/14 05:33:01;;;;;;;2.60;1.65;;;;;;;;;;5091333;28;20027;-59
2023/07/14 05:35:27;;;;;;;2.88;1.75;;;;;;;;;;5083574;28;20144;-59
2023/07/14 05:37:53;;;;;;;3.22;1.40;;;;;;;;;;5091873;28;20027;-60
2023/07/14 05:40:20;;;;;;;3.13;1.73;;;;;;;;;;5088557;28;20043;-59
2023/07/14 05:42:46;;;;;;;4.32;2.67;;;;;;;;;;5077821;28;20030;-61
2023/07/14 05:45:13;;;;;;;3.47;2.03;;;;;;;;;;5072297;28;20531;-60
2023/07/14 05:47:41;;;;;;;2.72;1.83;;;;;;;;;;5090750;28;20035;-60
2023/07/14 05:50:07;;;;;;;3.45;1.52;;;;;;;;;;5091768;28;20016;-61
2023/07/14 05:52:34;;;;;;;2.35;1.27;;;;;;;;;;5081995;28;20078;-60
2023/07/14 05:55:00;;;;;;;1.85;1.27;;;;;;;;;;5088910;28;20067;-61
2023/07/14 05:57:26;;;;;;;2.97;1.65;;;;;;;;;;5091623;28;20055;-60
2023/07/14 05:59:53;;;;;;;3.20;1.70;;;;;;;;;;5091920;28;20460;-60
2023/07/14 06:02:19;;;;;;;3.22;1.63;;;;;;;;;;5083833;28;20478;-60
2023/07/14 06:04:45;;;;;;;3.35;1.65;;;;;;;;;;5071238;28;20020;-60
2023/07/14 06:07:11;;;;;;;4.07;2.10;;;;;;;;;;5086368;28;20056;-60
2023/07/14 06:09:38;;;;;;;2.15;1.58;;;;;;;;;;5092161;28;20055;-60
2023/07/14 06:12:04;;;;;;;2.45;1.13;;;;;;;;;;5089956;28;20485;-60
2023/07/14 06:14:34;;;;;;;2.60;1.90;;;;;;;;;;5083637;28;20124;-61
2023/07/14 06:17:01;;;;;;;3.65;1.65;;;;;;;;;;5076684;28;20108;-59
2023/07/14 06:19:30;;;;;;;3.33;1.77;;;;;;;;;;5083201;28;20119;-59
2023/07/14 06:21:56;;;;;;;1.63;1.02;;;;;;;;;;5090288;28;20024;-59
2023/07/14 06:24:23;;;;;;;2.70;1.67;;;;;;;;;;5090859;28;20127;-59
2023/07/14 06:26:49;;;;;;;3.60;1.52;;;;;;;;;;5090214;28;20096;-59
2023/07/14 06:29:15;;;;;;;3.83;1.60;;;;;;;;;;5088458;28;20449;-59
2023/07/14 06:31:41;;;;;;;2.95;1.73;;;;;;;;;;5091064;28;20083;-59
2023/07/14 06:34:08;;;;;;;2.65;1.30;;;;;;;;;;5091733;28;20051;-59
2023/07/14 06:36:34;;;;;;;2.10;1.35;;;;;;;;;;5091527;28;20024;-60
2023/07/14 06:39:00;;;;;;;2.55;1.23;;;;;;;;;;5091659;28;20481;-60
2023/07/14 06:41:26;;;;;;;3.03;1.50;;;;;;;;;;5089291;28;20036;-60
2023/07/14 06:43:54;;;;;;;2.10;1.30;;;;;;;;;;5091290;28;20530;-60
2023/07/14 06:46:20;;;;;;;4.60;1.85;;;;;;;;;;5089028;28;20043;-59
2023/07/14 06:48:46;;;;;;;2.38;1.13;;;;;;;;;;5086392;28;20024;-60
2023/07/14 06:51:13;;;;;;;2.17;1.55;;;;;;;;;;5090514;28;20035;-59
2023/07/14 06:53:40;;;;;;;2.90;0.90;;;;;;;;;;5091943;28;20475;-59
2023/07/14 06:56:07;;;;;;;2.72;1.27;;;;;;;;;;5091579;28;20165;-60
2023/07/14 06:58:33;;;;;;;3.10;1.25;;;;;;;;;;5091683;28;20020;-59
2023/07/14 07:00:59;;;;;;;2.42;1.48;;;;;;;;;;5085407;28;20381;-59
2023/07/14 07:03:25;;;;;;;1.88;1.27;;;;;;;;;;5091538;28;20042;-59
2023/07/14 07:05:52;;;;;;;3.15;1.50;;;;;;;;;;5090966;28;20439;-60
2023/07/14 07:08:18;;;;;;;2.55;1.35;;;;;;;;;;5091259;28;20115;-60
2023/07/14 07:10:44;;;;;;;3.00;1.17;;;;;;;;;;5090172;28;20048;-59
2023/07/14 07:13:10;;;;;;;1.88;1.13;;;;;;;;;;5091316;28;20117;-59
2023/07/14 07:15:36;;;;;;;5.75;1.20;;;;;;;;;;5094069;28;20008;-59
2023/07/14 07:18:03;;;;;;;5.97;1.45;;;;;;;;;;5094971;28;20020;-59
2023/07/14 07:20:29;;;;;;;3.30;1.27;;;;;;;;;;5087660;28;20032;-59
2023/07/14 07:22:55;;;;;;;3.20;1.83;;;;;;;;;;5094729;28;20097;-59
2023/07/14 07:25:21;;;;;;;2.50;1.13;;;;;;;;;;5094717;28;20024;-59
2023/07/14 07:27:48;;;;;;;2.05;1.15;;;;;;;;;;5080208;28;20377;-60
2023/07/14 07:30:14;;;;;;;1.80;1.17;;;;;;;;;;5091879;28;20027;-59
2023/07/14 07:32:41;;;;;;;1.60;1.27;;;;;;;;;;5090995;28;20028;-60
2023/07/14 07:35:08;;;;;;;3.00;1.60;;;;;;;;;;5094232;28;20020;-59
2023/07/14 07:37:34;;;;;;;2.35;1.33;;;;;;;;;;5084887;28;20031;-60
2023/07/14 07:40:01;;;;;;;1.85;0.98;;;;;;;;;;5088075;28;20443;-60
2023/07/14 07:42:27;;;;;;;1.52;1.00;;;;;;;;;;5080109;28;20137;-60
2023/07/14 07:44:53;;;;;;;2.53;1.27;;;;;;;;;;5082901;28;20133;-60
2023/07/14 07:47:19;;;;;;;1.60;1.00;;;;;;;;;;5091227;28;20039;-59
2023/07/14 07:49:46;;;;;;;3.58;1.30;;;;;;;;;;5093872;28;20139;-59
2023/07/14 07:52:12;;;;;;;6.45;1.42;;;;;;;;;;5089606;28;20492;-59
2023/07/14 07:54:38;;;;;;;1.67;0.75;;;;;;;;;;5099763;28;20035;-59
2023/07/14 07:57:07;;;;;;;5.20;1.38;;;;;;;;;;5092372;28;20104;-60
2023/07/14 07:59:33;;;;;;;3.25;1.20;;;;;;;;;;5086915;28;20056;-59
2023/07/14 08:01:59;;;;;;;3.80;1.50;;;;;;;;;;5092942;28;20107;-59
2023/07/14 08:04:26;;;;;;;2.13;0.93;;;;;;;;;;5093652;28;20020;-59
2023/07/14 08:06:55;;;;;;;1.98;0.80;;;;;;;;;;5093523;28;20523;-58
2023/07/14 08:09:21;;;;;;;2.85;1.33;;;;;;;;;;5087804;28;20055;-59
2023/07/14 08:11:48;;;;;;;2.35;1.40;;;;;;;;;;5080743;28;20073;-59
2023/07/14 08:14:15;;;;;;;2.75;1.45;;;;;;;;;;5083258;28;20027;-59
2023/07/14 08:16:41;;;;;;;2.03;1.27;;;;;;;;;;5087252;28;20024;-59
2023/07/14 08:19:07;;;;;;;2.05;1.52;;;;;;;;;;5085444;28;20028;-59
2023/07/14 08:21:37;;;;;;;2.90;1.17;;;;;;;;;;5089395;28;20151;-59
2023/07/14 08:24:04;;;;;;;5.20;1.25;;;;;;;;;;5087426;28;20020;-59
2023/07/14 08:26:31;;;;;;;2.25;1.17;;;;;;;;;;5079961;28;20054;-59
2023/07/14 08:28:57;;;;;;;1.88;0.98;;;;;;;;;;5090582;28;20032;-59
2023/07/14 08:31:23;;;;;;;5.30;1.05;;;;;;;;;;5079686;28;20084;-59
2023/07/14 08:33:51;;;;;;;1.50;0.82;;;;;;;;;;5085208;28;20016;-59
2023/07/14 08:36:17;;;;;;;2.00;1.30;;;;;;;;;;5088910;28;20386;-59
2023/07/14 08:38:43;;;;;;;4.50;0.95;;;;;;;;;;5088293;28;20165;-59
2023/07/14 08:41:21;;;;;;;2.40;1.30;;;;;;;;;;5077941;28;20487;-59
2023/07/14 08:44:05;;;;;;;2.80;1.23;;;;;;;;;;5074859;28;20477;-59
2023/07/14 08:46:41;;;;;;;1.50;1.02;;;;;;;;;;5080028;28;20028;-59
2023/07/14 08:49:20;;;;;;;4.35;1.35;;;;;;;;;;5087919;28;20139;-59
2023/07/14 08:51:50;;;;;;;3.00;1.33;;;;;;;;;;5082051;28;20031;-59
2023/07/14 08:54:19;;;;;;;2.38;1.52;;;;;;;;;;5085980;28;20089;-59
2023/07/14 08:56:46;;;;;;;2.67;1.30;;;;;;;;;;5089325;28;20089;-59
2023/07/14 08:59:21;;;;;;;2.30;1.17;;;;;;;;;;5085900;28;20036;-59
2023/07/14 09:01:50;;;;;;;2.78;1.00;;;;;;;;;;5082138;28;20043;-60
2023/07/14 09:04:22;;;;;;;1.60;0.80;;;;;;;;;;5089276;28;20075;-60
2023/07/14 09:06:48;;;;;;;4.03;1.50;;;;;;;;;;5084282;28;20024;-61
2023/07/14 09:09:18;;;;;;;2.55;1.05;;;;;;;;;;5079050;28;20030;-61
2023/07/14 09:11:53;;;;;;;3.55;1.55;;;;;;;;;;5077848;28;20066;-60
2023/07/14 09:14:31;;;;;;;6.78;1.77;;;;;;;;;;5088168;28;20056;-60
2023/07/14 09:17:13;;;;;;;2.65;1.35;;;;;;;;;;5080459;28;20032;-60
2023/07/14 09:19:48;;;;;;;3.15;1.38;;;;;;;;;;5087053;28;20043;-61
2023/07/14 09:22:14;;;;;;;1.70;1.13;;;;;;;;;;5089277;28;20116;-60
2023/07/14 09:24:43;;;;;;;2.45;1.00;;;;;;;;;;5085709;28;20111;-60
2023/07/14 09:27:29;;;;;;;1.90;1.20;;;;;;;;;;5088020;28;20476;-60
2023/07/14 09:29:56;;;;;;;2.00;1.30;;;;;;;;;;5083551;28;20073;-61
2023/07/14 09:32:26;;;;;;;1.95;1.10;;;;;;;;;;5080815;28;20117;-60
2023/07/14 09:34:56;;;;;;;1.85;0.98;;;;;;;;;;5086494;28;20024;-59
2023/07/14 09:37:33;;;;;;;2.80;1.02;;;;;;;;;;5077081;28;20035;-59
2023/07/14 09:40:09;;;;;;;5.10;1.52;;;;;;;;;;5079735;28;20139;-59
2023/07/14 09:42:38;;;;;;;2.30;1.17;;;;;;;;;;5086818;28;20105;-59
2023/07/14 09:45:14;;;;;;;1.23;0.80;;;;;;;;;;5083493;28;20044;-60
2023/07/14 09:47:41;;;;;;;2.58;0.88;;;;;;;;;;5083071;28;20861;-59
2023/07/14 09:50:11;;;;;;;3.03;1.42;;;;;;;;;;5079868;28;20054;-59
2023/07/14 09:52:48;;;;;;;2.67;1.43;;;;;;;;;;5082087;28;20099;-60
2023/07/14 09:55:14;;;;;;;2.70;1.45;;;;;;;;;;5080533;28;20017;-60
2023/07/14 09:57:42;;;;;;;2.45;1.10;;;;;;;;;;5081990;28;20036;-59
2023/07/14 10:00:34;;;;;;;2.20;0.80;;;;;;;;;;5082763;28;20294;-60
2023/07/14 10:03:07;;;;;;;2.75;1.48;;;;;;;;;;5079515;28;20088;-59
2023/07/14 10:05:36;;;;;;;2.10;1.25;;;;;;;;;;5084604;28;20024;-60
2023/07/14 10:08:22;;;;;;;1.90;1.07;;;;;;;;;;5086830;28;20055;-60
2023/07/14 10:10:49;;;;;;;2.85;1.00;;;;;;;;;;5075064;28;20270;-60
2023/07/14 10:13:17;;;;;;;1.95;1.17;;;;;;;;;;5077415;28;20024;-60
2023/07/14 10:15:50;;;;;;;3.17;1.75;;;;;;;;;;5085506;28;20039;-60
2023/07/14 10:18:16;;;;;;;2.00;0.93;;;;;;;;;;5084510;28;20466;-60
2023/07/14 10:20:54;;;;;;;1.23;0.70;;;;;;;;;;5080985;28;20051;-60
2023/07/14 10:23:20;;;;;;;2.03;0.85;;;;;;;;;;5087590;28;20418;-60
2023/07/14 10:25:51;;;;;;;2.78;1.20;;;;;;;;;;5082714;28;20046;-60
2023/07/14 10:28:17;;;;;;;;;;;;;;;;;;5080635;28;20024;-60
2023/07/14 10:30:46;;;;;;;2.00;1.40;;;;;;;;;;5082175;28;20404;-60
2023/07/14 10:33:17;;;;;;;2.10;1.13;;;;;;;;;;5083587;28;20497;-60
2023/07/14 10:35:44;;;;;;;1.85;1.00;;;;;;;;;;5077307;28;20019;-60
2023/07/14 10:38:16;;;;;;;6.85;1.10;;;;;;;;;;5089762;28;20032;-60
2023/07/14 10:40:53;;;;;;;3.85;1.30;;;;;;;;;;5081849;28;20034;-60
2023/07/14 10:43:24;;;;;;;2.65;1.13;;;;;;;;;;5082569;28;20028;-61
2023/07/14 10:45:53;;;;;;;2.53;1.00;;;;;;;;;;5080387;28;20413;-60
2023/07/14 10:48:24;;;;;;;2.40;1.10;;;;;;;;;;5086360;28;20034;-60
2023/07/14 10:50:55;;;;;;;2.30;1.73;;;;;;;;;;5087777;28;20055;-60
2023/07/14 10:53:21;;;;;;;;;;;;;;;;;;5091333;28;20023;-60
2023/07/14 10:55:48;;;;;;;5.07;1.50;;;;;;;;;;5089147;28;19912;-60
2023/07/14 10:58:44;;;;;;;1.50;0.70;;;;;;;;;;5085246;28;20036;-60
2023/07/14 11:01:19;;;;;;;2.25;1.10;;;;;;;;;;5068742;28;20043;-60
2023/07/14 11:03:49;;;;;;;1.90;1.38;;;;;;;;;;5090974;28;20062;-60
2023/07/14 11:06:18;;;;;;;6.00;1.20;;;;;;;;;;5087709;28;20024;-60
2023/07/14 11:08:46;;;;;;;1.67;1.08;;;;;;;;;;5104013;28;20023;-60
2023/07/14 11:11:23;;;;;;;3.40;1.65;;;;;;;;;;5102743;28;20054;-60
2023/07/14 11:14:02;;;;;;;2.25;1.10;;;;;;;;;;5090218;28;20019;-60
2023/07/14 11:16:34;;;;;;;2.33;1.02;;;;;;;;;;5094488;28;20035;-60
2023/07/14 11:19:12;;;;;;;2.05;1.38;;;;;;;;;;5089046;28;20040;-60
2023/07/14 11:21:41;;;;;;;2.70;1.23;;;;;;;;;;5084311;28;20024;-59
2023/07/14 11:24:17;;;;;;;4.18;1.27;;;;;;;;;;5083458;28;20063;-60
2023/07/14 11:27:02;;;;;;;3.00;1.23;;;;;;;;;;5079748;28;20020;-60
2023/07/14 11:29:32;;;;;;;2.13;0.88;;;;;;;;;;5080784;28;20040;-60
2023/07/14 11:31:59;;;;;;;2.63;1.40;;;;;;;;;;5087388;28;20161;-60
2023/07/14 11:34:25;;;;;;;2.28;1.25;;;;;;;;;;5086728;28;20032;-60
2023/07/14 11:36:54;;;;;;;1.63;0.90;;;;;;;;;;5082706;28;20025;-60
2023/07/14 11:39:29;;;;;;;2.47;0.98;;;;;;;;;;5086369;28;20073;-60
2023/07/14 11:41:56;;;;;;;2.17;1.20;;;;;;;;;;5091386;28;20016;-60
2023/07/14 11:44:22;;;;;;;4.20;1.05;;;;;;;;;;5086173;28;20020;-60
2023/07/14 11:46:49;;;;;;;2.45;1.63;;;;;;;;;;5079599;28;20122;-61
2023/07/14 11:49:25;;;;;;;1.80;0.90;;;;;;;;;;5092315;28;20504;-60
2023/07/14 11:51:52;;;;;;;2.50;1.25;;;;;;;;;;5086695;28;20531;-60
2023/07/14 11:54:20;;;;;;;2.20;1.45;;;;;;;;;;5079941;28;20120;-60
2023/07/14 11:56:59;;;;;;;2.38;1.25;;;;;;;;;;5080161;28;20027;-60
2023/07/14 11:59:26;;;;;;;1.88;1.08;;;;;;;;;;5101029;28;20024;-60
2023/07/14 12:01:55;;;;;;;3.63;1.17;;;;;;;;;;5087265;28;20380;-60
2023/07/14 12:04:23;;;;;;;1.60;0.90;;;;;;;;;;5084404;28;20421;-60
2023/07/14 12:06:50;;;;;;;3.08;1.15;;;;;;;;;;5082482;28;20030;-60
2023/07/14 12:09:18;;;;;;;3.30;1.00;;;;;;;;;;5089528;28;20032;-60
2023/07/14 12:11:46;;;;;;;1.33;0.82;;;;;;;;;;5080830;28;20028;-60
2023/07/14 12:14:29;;;;;;;1.48;0.80;;;;;;;;;;5080320;28;20024;-60
2023/07/14 12:16:56;;;;;;;2.08;1.20;;;;;;;;;;5087883;28;20051;-60
2023/07/14 12:19:26;;;;;;;1.95;1.20;;;;;;;;;;5079454;28;20031;-60
2023/07/14 12:22:05;;;;;;;2.55;1.08;;;;;;;;;;5084742;28;20031;-60
2023/07/14 12:24:32;;;;;;;5.43;1.33;;;;;;;;;;5080867;28;20048;-60
2023/07/14 12:27:17;;;;;;;2.53;1.00;;;;;;;;;;5080050;28;20081;-60
2023/07/14 12:29:43;;;;;;;2.20;1.13;;;;;;;;;;5082322;28;20078;-60
2023/07/14 12:32:19;;;;;;;2.70;1.17;;;;;;;;;;5086300;28;20038;-60
2023/07/14 12:34:46;;;;;;;1.83;1.10;;;;;;;;;;5085024;28;20020;-60
2023/07/14 12:37:17;;;;;;;2.78;1.10;;;;;;;;;;5088185;28;20030;-61
2023/07/14 12:39:46;;;;;;;1.67;1.02;;;;;;;;;;5090024;28;20102;-60
2023/07/14 12:42:12;;;;;;;1.88;1.00;;;;;;;;;;5080100;28;20024;-60
2023/07/14 12:44:39;;;;;;;3.28;1.17;;;;;;;;;;5080479;28;20463;-60
2023/07/14 12:47:07;;;;;;;2.20;1.08;;;;;;;;;;5087744;28;20038;-60
2023/07/14 12:49:33;;;;;;;1.77;1.02;;;;;;;;;;5091393;28;20043;-60
2023/07/14 12:52:07;;;;;;;2.95;1.58;;;;;;;;;;5079955;28;20064;-61
2023/07/14 12:54:33;;;;;;;1.60;0.95;;;;;;;;;;5083256;28;20028;-60
2023/07/14 12:56:59;;;;;;;3.13;1.30;;;;;;;;;;5084234;28;20027;-60
2023/07/14 12:59:25;;;;;;;1.83;1.00;;;;;;;;;;5083176;28;20060;-60
2023/07/14 13:01:52;;;;;;;2.83;1.38;;;;;;;;;;5085371;28;20025;-60
2023/07/14 13:04:19;;;;;;;2.70;1.52;;;;;;;;;;5081881;28;20067;-60
2023/07/14 13:06:46;;;;;;;2.38;0.85;;;;;;;;;;5081130;28;20043;-60
2023/07/14 13:09:23;;;;;;;1.98;1.23;;;;;;;;;;5078568;28;20025;-60
2023/07/14 13:11:50;;;;;;;2.60;1.40;;;;;;;;;;5078558;28;20049;-60
2023/07/14 13:14:19;;;;;;;4.80;1.60;;;;;;;;;;5076861;28;20027;-60
2023/07/14 13:16:45;;;;;;;1.55;1.00;;;;;;;;;;5078531;28;20025;-60
2023/07/14 13:19:21;;;;;;;2.03;0.95;;;;;;;;;;5078672;28;20130;-60
2023/07/14 13:21:48;;;;;;;2.40;1.33;;;;;;;;;;5082203;28;20067;-60
2023/07/14 13:24:16;;;;;;;1.80;1.17;;;;;;;;;;5076779;28;20356;-60
2023/07/14 13:26:46;;;;;;;3.90;1.38;;;;;;;;;;5084920;28;20031;-60
2023/07/14 13:29:15;;;;;;;2.67;0.90;;;;;;;;;;5083959;28;20036;-60
2023/07/14 13:31:42;;;;;;;2.58;1.17;;;;;;;;;;5082414;28;20021;-60
2023/07/14 13:34:14;;;;;;;1.92;1.35;;;;;;;;;;5075860;28;20024;-60
2023/07/14 13:36:40;;;;;;;2.97;1.60;;;;;;;;;;5081720;28;20024;-60
2023/07/14 13:39:08;;;;;;;5.68;1.35;;;;;;;;;;5084195;28;20058;-60
2023/07/14 13:41:34;;;;;;;1.65;0.85;;;;;;;;;;5077682;28;20020;-60
2023/07/14 13:44:19;;;;;;;3.97;1.50;;;;;;;;;;5061704;28;20354;-60
2023/07/14 13:46:45;;;;;;;4.03;1.48;;;;;;;;;;5049486;28;20063;-60
2023/07/14 13:49:11;;;;;;;1.70;0.90;;;;;;;;;;5049022;28;20055;-60
2023/07/14 13:51:37;;;;;;;2.15;1.05;;;;;;;;;;5061753;28;20439;-61
2023/07/14 13:54:09;;;;;;;1.83;1.30;;;;;;;;;;5060330;28;20115;-60
2023/07/14 13:56:34;;;;;;;2.90;1.23;;;;;;;;;;5071091;28;20070;-60
2023/07/14 13:59:01;;;;;;;2.45;1.25;;;;;;;;;;5073578;28;20036;-60
2023/07/14 14:01:28;;;;;;;2.05;1.00;;;;;;;;;;5077987;28;20532;-60
2023/07/14 14:03:55;;;;;;;1.77;0.98;;;;;;;;;;5080918;28;20082;-60
2023/07/14 14:06:21;;;;;;;3.20;1.10;;;;;;;;;;5085581;28;20089;-60
2023/07/14 14:08:48;;;;;;;1.98;1.05;;;;;;;;;;5076268;28;20086;-60
2023/07/14 14:11:13;;;;;;;1.90;0.90;;;;;;;;;;5078231;28;20028;-60
2023/07/14 14:13:40;;;;;;;3.45;1.17;;;;;;;;;;5080460;28;20062;-60
2023/07/14 14:16:10;;;;;;;2.22;1.17;;;;;;;;;;5080964;28;20493;-60
2023/07/14 14:18:36;;;;;;;2.72;1.00;;;;;;;;;;5084493;28;20024;-60
2023/07/14 14:21:02;;;;;;;2.97;1.27;;;;;;;;;;5082445;28;20054;-60
2023/07/14 14:23:28;;;;;;;3.60;1.45;;;;;;;;;;5080657;28;20278;-60
2023/07/14 14:25:56;;;;;;;2.83;1.10;;;;;;;;;;5089193;28;20035;-60
2023/07/14 14:28:23;;;;;;;1.75;0.70;;;;;;;;;;5085565;28;20473;-61
2023/07/14 14:30:50;;;;;;;2.10;1.20;;;;;;;;;;5079111;28;20134;-60
2023/07/14 14:33:20;;;;;;;2.63;1.50;;;;;;;;;;5085460;28;20039;-60
2023/07/14 14:35:46;;;;;;;2.10;1.23;;;;;;;;;;5080725;28;20121;-60
2023/07/14 14:38:14;;;;;;;1.65;0.85;;;;;;;;;;5082622;28;20079;-60
2023/07/14 14:40:40;;;;;;;1.92;1.10;;;;;;;;;;5080111;28;20031;-61
2023/07/14 14:43:11;;;;;;;2.13;1.20;;;;;;;;;;5084271;28;20386;-60
2023/07/14 14:45:37;;;;;;;3.28;1.38;;;;;;;;;;5084345;28;20454;-60
2023/07/14 14:48:12;;;;;;;3.13;1.40;;;;;;;;;;5082298;28;20116;-60
2023/07/14 14:50:38;;;;;;;3.22;1.77;;;;;;;;;;5081148;28;20369;-61